Time;durP1;ratioP1;P1;durP2;ratioP2;P2;SDS_P1;SDS_P2;PMS_P1;PMS_P2;Temp;Humidity;BMP_temperature;BMP_pressure;BME280_temperature;BME280_humidity;BME280_pressure;Samples;Min_cycle;Max_cycle;Signal;HPM_P1;HPM_P2
2021/12/10 00:01:37;;;;;;;69.82;32.92;;;;;;;;;;5037922;28;20028;-77
2021/12/10 00:04:04;;;;;;;66.13;31.75;;;;;;;;;;5038664;28;20024;-76
2021/12/10 00:06:29;;;;;;;72.47;33.53;;;;;;;;;;5056140;28;20065;-76
2021/12/10 00:08:56;;;;;;;81.80;38.05;;;;;;;;;;5055735;28;20032;-77
2021/12/10 00:11:28;;;;;;;71.82;33.97;;;;;;;;;;5037889;28;20021;-77
2021/12/10 00:13:53;;;;;;;98.93;48.08;;;;;;;;;;5037864;28;20025;-78
2021/12/10 00:16:19;;;;;;;106.05;52.67;;;;;;;;;;5037802;28;20478;-77
2021/12/10 00:18:52;;;;;;;99.38;47.65;;;;;;;;;;5037815;28;20031;-77
2021/12/10 00:21:18;;;;;;;96.63;45.20;;;;;;;;;;5055506;28;20028;-77
2021/12/10 00:23:48;;;;;;;100.40;47.47;;;;;;;;;;5037676;28;20020;-77
2021/12/10 00:26:14;;;;;;;96.57;46.13;;;;;;;;;;5037776;28;20024;-77
2021/12/10 00:28:40;;;;;;;108.97;51.45;;;;;;;;;;5037131;28;20372;-76
2021/12/10 00:31:20;;;;;;;99.55;44.80;;;;;;;;;;5057385;28;20032;-76
2021/12/10 00:33:49;;;;;;;102.35;48.38;;;;;;;;;;5055733;28;20017;-77
2021/12/10 00:36:14;;;;;;;95.97;48.33;;;;;;;;;;5037327;28;20028;-76
2021/12/10 00:38:40;;;;;;;88.82;40.72;;;;;;;;;;5037335;28;20260;-77
2021/12/10 00:41:06;;;;;;;88.70;42.47;;;;;;;;;;5054817;28;20029;-77
2021/12/10 00:43:31;;;;;;;89.53;45.05;;;;;;;;;;5055175;28;20472;-76
2021/12/10 00:45:56;;;;;;;79.38;40.47;;;;;;;;;;5055537;28;20024;-77
2021/12/10 00:48:22;;;;;;;69.82;34.45;;;;;;;;;;5037249;28;20476;-77
2021/12/10 00:50:49;;;;;;;58.40;30.88;;;;;;;;;;5055578;28;20024;-77
2021/12/10 00:53:15;;;;;;;75.43;37.63;;;;;;;;;;5055187;28;20029;-76
2021/12/10 00:55:41;;;;;;;72.25;35.58;;;;;;;;;;5055127;28;20093;-77
2021/12/10 00:58:07;;;;;;;101.63;51.63;;;;;;;;;;5054366;28;20147;-77
2021/12/10 01:00:39;;;;;;;151.93;76.13;;;;;;;;;;5055463;28;20494;-77
2021/12/10 01:03:07;;;;;;;144.32;71.97;;;;;;;;;;5055163;28;20024;-77
2021/12/10 01:05:32;;;;;;;133.70;71.80;;;;;;;;;;5037008;28;20020;-77
2021/12/10 01:07:58;;;;;;;100.82;51.67;;;;;;;;;;5055019;28;20036;-77
2021/12/10 01:10:25;;;;;;;93.63;48.92;;;;;;;;;;5037993;28;20037;-77
2021/12/10 01:12:52;;;;;;;90.90;48.72;;;;;;;;;;5036757;28;20036;-76
2021/12/10 01:28:45;;;;;;;84.30;43.47;;;;;;;;;;5055479;28;20083;-77
2021/12/10 01:31:10;;;;;;;69.75;37.08;;;;;;;;;;5054316;28;20016;-77
2021/12/10 01:33:36;;;;;;;60.63;31.92;;;;;;;;;;5056050;28;20040;-77
2021/12/10 01:36:07;;;;;;;57.92;30.15;;;;;;;;;;5036742;28;20487;-76
2021/12/10 01:38:33;;;;;;;51.92;29.50;;;;;;;;;;5036595;28;20116;-77
2021/12/10 01:41:00;;;;;;;55.63;32.35;;;;;;;;;;5037050;28;20127;-76
2021/12/10 01:43:26;;;;;;;57.05;32.33;;;;;;;;;;5055041;28;20439;-76
2021/12/10 01:45:55;;;;;;;58.10;31.65;;;;;;;;;;5055684;28;20036;-77
2021/12/10 01:48:23;;;;;;;54.80;29.70;;;;;;;;;;5054765;28;20032;-76
2021/12/10 01:50:49;;;;;;;47.78;25.95;;;;;;;;;;5036464;28;20036;-76
2021/12/10 01:53:16;;;;;;;50.00;25.27;;;;;;;;;;5039931;28;20024;-77
2021/12/10 01:55:42;;;;;;;45.42;25.02;;;;;;;;;;5058589;28;20024;-77
2021/12/10 01:58:09;;;;;;;59.60;29.42;;;;;;;;;;5040165;28;20124;-76
2021/12/10 02:00:37;;;;;;;54.53;28.42;;;;;;;;;;5058948;28;20039;-76
2021/12/10 02:03:02;;;;;;;54.15;30.67;;;;;;;;;;5040515;28;20024;-76
2021/12/10 02:05:28;;;;;;;57.30;33.13;;;;;;;;;;5059073;28;20025;-78
2021/12/10 02:07:54;;;;;;;58.03;32.80;;;;;;;;;;5058936;28;20048;-77
2021/12/10 02:10:21;;;;;;;65.07;37.17;;;;;;;;;;5058379;28;20028;-76
2021/12/10 02:12:46;;;;;;;75.82;40.30;;;;;;;;;;5040170;28;20028;-76
2021/12/10 02:15:13;;;;;;;86.05;47.50;;;;;;;;;;5039696;28;20025;-77
2021/12/10 02:17:41;;;;;;;78.60;43.90;;;;;;;;;;5040296;28;20115;-75
2021/12/10 02:20:13;;;;;;;80.68;44.10;;;;;;;;;;5058949;28;20035;-76
2021/12/10 02:22:39;;;;;;;86.18;43.20;;;;;;;;;;5040038;28;20039;-76
2021/12/10 02:25:06;;;;;;;63.70;35.65;;;;;;;;;;5058150;28;20439;-75
2021/12/10 02:27:32;;;;;;;53.38;27.95;;;;;;;;;;5057583;28;20047;-76
2021/12/10 02:29:57;;;;;;;51.97;30.10;;;;;;;;;;5040989;28;20036;-76
2021/12/10 02:32:24;;;;;;;50.55;28.80;;;;;;;;;;5057884;28;20028;-77
2021/12/10 02:34:50;;;;;;;62.03;33.47;;;;;;;;;;5058084;28;20111;-77
2021/12/10 02:37:15;;;;;;;65.38;37.63;;;;;;;;;;5058058;28;20540;-77
2021/12/10 02:39:41;;;;;;;72.78;39.97;;;;;;;;;;5058022;28;20052;-76
2021/12/10 02:42:06;;;;;;;57.30;31.35;;;;;;;;;;5057579;28;20587;-75
2021/12/10 02:44:32;;;;;;;51.65;29.35;;;;;;;;;;5057644;28;20111;-76
2021/12/10 02:46:58;;;;;;;50.33;29.38;;;;;;;;;;5057862;28;20478;-75
2021/12/10 02:49:24;;;;;;;61.50;37.63;;;;;;;;;;5039293;28;20380;-75
2021/12/10 02:51:49;;;;;;;58.67;32.25;;;;;;;;;;5058540;28;20039;-76
2021/12/10 02:54:21;;;;;;;48.13;28.85;;;;;;;;;;5039769;28;20024;-76
2021/12/10 02:56:46;;;;;;;51.92;27.95;;;;;;;;;;5057259;28;20067;-75
2021/12/10 02:59:11;;;;;;;47.40;26.60;;;;;;;;;;5057729;28;20032;-75
2021/12/10 03:01:40;;;;;;;49.90;26.85;;;;;;;;;;5057116;28;20485;-75
2021/12/10 03:04:07;;;;;;;39.75;21.90;;;;;;;;;;5056324;28;20021;-74
2021/12/10 03:06:34;;;;;;;36.35;18.67;;;;;;;;;;5057552;28;20043;-77
2021/12/10 03:08:59;;;;;;;34.25;19.00;;;;;;;;;;5057251;28;20029;-77
2021/12/10 03:11:30;;;;;;;32.03;19.30;;;;;;;;;;5057900;28;20033;-78
2021/12/10 03:13:55;;;;;;;31.02;18.15;;;;;;;;;;5058416;28;20047;-75
2021/12/10 03:16:22;;;;;;;32.67;19.90;;;;;;;;;;5038682;28;20435;-77
2021/12/10 03:18:47;;;;;;;37.22;21.30;;;;;;;;;;5057441;28;20029;-77
2021/12/10 03:21:13;;;;;;;35.75;19.70;;;;;;;;;;5038749;28;20111;-77
2021/12/10 03:23:42;;;;;;;36.60;21.63;;;;;;;;;;5056465;28;20055;-78
2021/12/10 03:26:12;;;;;;;37.57;22.10;;;;;;;;;;5038763;28;20468;-78
2021/12/10 03:28:41;;;;;;;38.70;22.88;;;;;;;;;;5038789;28;20274;-78
2021/12/10 03:31:07;;;;;;;41.47;23.27;;;;;;;;;;5056366;28;20025;-77
2021/12/10 03:33:33;;;;;;;43.08;22.40;;;;;;;;;;5057179;28;20028;-77
2021/12/10 03:35:59;;;;;;;45.03;24.38;;;;;;;;;;5038581;28;20082;-76
2021/12/10 03:38:25;;;;;;;42.30;23.70;;;;;;;;;;5056522;28;20361;-76
2021/12/10 03:40:51;;;;;;;43.65;23.92;;;;;;;;;;5056448;28;20112;-77
2021/12/10 03:43:16;;;;;;;38.38;19.95;;;;;;;;;;5056892;28;20120;-76
2021/12/10 03:45:44;;;;;;;30.58;18.27;;;;;;;;;;5038115;28;20021;-77
2021/12/10 03:48:11;;;;;;;33.28;19.67;;;;;;;;;;5056639;28;20502;-77
2021/12/10 03:50:37;;;;;;;37.70;19.85;;;;;;;;;;5038481;28;20090;-77
2021/12/10 03:53:02;;;;;;;33.45;17.90;;;;;;;;;;5038081;28;20024;-77
2021/12/10 03:55:28;;;;;;;38.33;21.60;;;;;;;;;;5056246;28;20024;-77
2021/12/10 03:57:54;;;;;;;40.80;23.08;;;;;;;;;;5056914;28;20125;-77
2021/12/10 04:00:21;;;;;;;37.22;22.55;;;;;;;;;;5038075;28;20082;-76
2021/12/10 04:02:47;;;;;;;34.83;20.73;;;;;;;;;;5056736;28;20409;-76
2021/12/10 04:05:12;;;;;;;33.88;20.67;;;;;;;;;;5037691;28;20027;-76
2021/12/10 04:07:38;;;;;;;36.50;21.85;;;;;;;;;;5055876;28;20036;-76
2021/12/10 04:10:06;;;;;;;36.42;21.85;;;;;;;;;;5056162;28;20048;-76
2021/12/10 04:12:31;;;;;;;32.30;18.35;;;;;;;;;;5055803;28;20901;-76
2021/12/10 04:14:57;;;;;;;28.45;16.27;;;;;;;;;;5056519;28;20463;-77
2021/12/10 04:17:23;;;;;;;23.25;15.27;;;;;;;;;;5056236;28;20027;-76
2021/12/10 04:19:50;;;;;;;23.48;13.88;;;;;;;;;;5037457;28;20048;-77
2021/12/10 04:22:16;;;;;;;24.73;16.50;;;;;;;;;;5055906;28;20043;-77
2021/12/10 04:24:41;;;;;;;31.95;19.95;;;;;;;;;;5055913;28;20634;-77
2021/12/10 04:27:08;;;;;;;38.25;23.80;;;;;;;;;;5037426;28;20490;-78
2021/12/10 04:29:34;;;;;;;36.45;22.38;;;;;;;;;;5039282;28;20020;-77
2021/12/10 04:32:00;;;;;;;34.15;21.48;;;;;;;;;;5037463;28;20032;-77
2021/12/10 04:34:26;;;;;;;35.25;21.35;;;;;;;;;;5037453;28;20036;-78
2021/12/10 04:36:53;;;;;;;37.72;23.85;;;;;;;;;;5037685;28;20387;-77
2021/12/10 04:39:18;;;;;;;50.17;29.13;;;;;;;;;;5055726;28;20040;-77
2021/12/10 04:41:44;;;;;;;39.28;24.33;;;;;;;;;;5037501;28;20028;-78
2021/12/10 04:44:10;;;;;;;42.20;27.55;;;;;;;;;;5055868;28;20016;-78
2021/12/10 04:46:35;;;;;;;42.85;25.52;;;;;;;;;;5037257;28;20024;-77
2021/12/10 04:49:03;;;;;;;38.28;22.02;;;;;;;;;;5037190;28;20043;-78
2021/12/10 04:51:32;;;;;;;36.15;21.20;;;;;;;;;;5037320;28;20027;-77
2021/12/10 04:53:59;;;;;;;35.35;18.27;;;;;;;;;;5055310;28;20029;-77
2021/12/10 04:56:25;;;;;;;35.38;20.33;;;;;;;;;;5036767;28;20028;-77
2021/12/10 04:58:51;;;;;;;36.55;21.25;;;;;;;;;;5055310;28;20067;-77
2021/12/10 05:01:17;;;;;;;49.83;24.83;;;;;;;;;;5054948;28;20440;-77
2021/12/10 05:03:43;;;;;;;52.83;27.80;;;;;;;;;;5037344;28;20963;-77
2021/12/10 05:06:09;;;;;;;45.97;24.52;;;;;;;;;;5055650;28;20054;-77
2021/12/10 05:08:35;;;;;;;55.83;31.75;;;;;;;;;;5054829;28;20060;-77
2021/12/10 05:11:01;;;;;;;52.65;33.70;;;;;;;;;;5054842;28;20021;-78
2021/12/10 05:13:27;;;;;;;50.97;30.13;;;;;;;;;;5054793;28;20044;-77
2021/12/10 05:15:58;;;;;;;51.10;29.42;;;;;;;;;;5037783;28;20032;-76
2021/12/10 05:18:29;;;;;;;42.30;25.85;;;;;;;;;;5036695;28;20036;-77
2021/12/10 05:20:55;;;;;;;54.05;30.77;;;;;;;;;;5037195;28;20035;-75
2021/12/10 05:23:21;;;;;;;60.78;36.20;;;;;;;;;;5054645;28;20021;-77
2021/12/10 05:25:46;;;;;;;54.50;31.30;;;;;;;;;;5054910;28;20036;-77
2021/12/10 05:28:13;;;;;;;37.92;22.55;;;;;;;;;;5036235;28;20025;-76
2021/12/10 05:30:39;;;;;;;32.63;21.58;;;;;;;;;;5054491;28;20034;-77
2021/12/10 05:33:04;;;;;;;32.25;19.70;;;;;;;;;;5055486;28;20017;-76
2021/12/10 05:35:31;;;;;;;32.00;19.10;;;;;;;;;;5054755;28;20020;-77
2021/12/10 05:37:56;;;;;;;27.55;16.58;;;;;;;;;;5036333;28;20028;-77
2021/12/10 05:40:23;;;;;;;27.05;16.67;;;;;;;;;;5036477;28;20030;-77
2021/12/10 05:42:48;;;;;;;26.85;16.88;;;;;;;;;;5036498;28;20021;-77
2021/12/10 05:45:15;;;;;;;35.13;20.02;;;;;;;;;;5036771;28;20028;-76
2021/12/10 05:47:41;;;;;;;31.70;17.83;;;;;;;;;;5037642;28;20039;-75
2021/12/10 05:50:07;;;;;;;36.85;23.65;;;;;;;;;;5036326;28;20029;-76
2021/12/10 05:52:33;;;;;;;32.25;20.90;;;;;;;;;;5036674;28;20028;-78
2021/12/10 05:54:58;;;;;;;33.70;20.95;;;;;;;;;;5054657;28;20403;-75
2021/12/10 05:57:24;;;;;;;33.53;21.70;;;;;;;;;;5054828;28;20499;-76
2021/12/10 05:59:49;;;;;;;33.72;21.55;;;;;;;;;;5054440;28;20052;-77
2021/12/10 06:02:14;;;;;;;32.80;22.58;;;;;;;;;;5036535;28;20044;-78
2021/12/10 06:04:40;;;;;;;43.05;25.77;;;;;;;;;;5056365;28;20027;-76
2021/12/10 06:07:06;;;;;;;46.20;32.35;;;;;;;;;;5036358;28;20129;-76
2021/12/10 06:09:32;;;;;;;45.50;28.58;;;;;;;;;;5036536;28;20706;-77
2021/12/10 06:11:57;;;;;;;66.88;39.58;;;;;;;;;;5036108;28;20032;-76
2021/12/10 06:14:23;;;;;;;88.22;51.40;;;;;;;;;;5054526;28;20027;-75
2021/12/10 06:16:48;;;;;;;73.47;44.42;;;;;;;;;;5054274;28;20145;-77
2021/12/10 06:19:13;;;;;;;58.95;36.13;;;;;;;;;;5054032;28;20032;-78
2021/12/10 06:21:39;;;;;;;57.55;34.55;;;;;;;;;;5055486;28;20035;-76
2021/12/10 06:24:04;;;;;;;64.15;38.40;;;;;;;;;;5036494;28;20020;-76
2021/12/10 06:26:30;;;;;;;61.22;39.88;;;;;;;;;;5055092;28;20020;-76
2021/12/10 06:28:55;;;;;;;65.55;40.95;;;;;;;;;;5054449;28;20035;-76
2021/12/10 06:31:22;;;;;;;290.85;191.30;;;;;;;;;;5036210;28;20025;-76
2021/12/10 06:33:48;;;;;;;198.60;113.63;;;;;;;;;;5053709;28;20029;-77
2021/12/10 06:36:15;;;;;;;149.80;83.50;;;;;;;;;;5053892;28;20474;-77
2021/12/10 06:38:40;;;;;;;128.07;72.15;;;;;;;;;;5036809;28;20032;-75
2021/12/10 06:41:06;;;;;;;110.97;66.85;;;;;;;;;;5058487;28;20024;-77
2021/12/10 06:43:31;;;;;;;113.60;66.85;;;;;;;;;;5059573;28;20504;-76
2021/12/10 06:45:57;;;;;;;85.05;51.50;;;;;;;;;;5054826;28;20021;-76
2021/12/10 06:48:24;;;;;;;57.70;37.20;;;;;;;;;;5051843;28;20029;-76
2021/12/10 06:50:53;;;;;;;44.83;29.73;;;;;;;;;;5039464;28;20444;-76
2021/12/10 06:53:19;;;;;;;58.97;38.25;;;;;;;;;;5061129;28;20075;-76
2021/12/10 06:55:45;;;;;;;60.97;38.70;;;;;;;;;;5055042;28;20025;-75
2021/12/10 06:58:10;;;;;;;50.03;30.30;;;;;;;;;;5058519;28;20055;-76
2021/12/10 07:00:41;;;;;;;56.30;37.47;;;;;;;;;;5047345;28;20020;-75
2021/12/10 07:03:07;;;;;;;60.55;39.17;;;;;;;;;;5056957;28;20361;-75
2021/12/10 07:05:33;;;;;;;48.67;34.20;;;;;;;;;;5044899;28;20046;-77
2021/12/10 07:07:59;;;;;;;54.78;34.72;;;;;;;;;;5057410;28;20036;-77
2021/12/10 07:10:24;;;;;;;240.77;134.10;;;;;;;;;;5057900;28;20460;-77
2021/12/10 07:12:51;;;;;;;134.27;73.88;;;;;;;;;;5053113;28;20505;-78
2021/12/10 07:15:17;;;;;;;75.88;42.53;;;;;;;;;;5045653;28;20027;-77
2021/12/10 07:17:44;;;;;;;55.67;32.97;;;;;;;;;;5056532;28;20020;-78
2021/12/10 07:20:11;;;;;;;116.15;71.13;;;;;;;;;;5044685;28;20418;-78
2021/12/10 07:22:36;;;;;;;95.78;58.95;;;;;;;;;;5056732;28;20025;-77
2021/12/10 07:25:03;;;;;;;94.63;57.78;;;;;;;;;;5039751;28;20078;-78
2021/12/10 07:27:28;;;;;;;68.45;43.88;;;;;;;;;;5057185;28;20032;-78
2021/12/10 07:29:54;;;;;;;61.08;39.42;;;;;;;;;;5035085;28;20040;-78
2021/12/10 07:32:19;;;;;;;49.42;30.85;;;;;;;;;;5038298;28;20029;-78
2021/12/10 07:34:45;;;;;;;38.47;25.15;;;;;;;;;;5056551;28;20098;-77
2021/12/10 07:37:10;;;;;;;36.35;23.02;;;;;;;;;;5038285;28;20055;-78
2021/12/10 07:39:37;;;;;;;40.13;25.10;;;;;;;;;;5056616;28;20031;-77
2021/12/10 07:42:07;;;;;;;42.03;25.50;;;;;;;;;;5038813;28;20024;-79
2021/12/10 07:44:32;;;;;;;;;;;;;;;;;;5038762;28;20016;-79
2021/12/10 07:47:00;;;;;;;29.15;19.10;;;;;;;;;;5056889;28;19912;-78
2021/12/10 07:49:29;;;;;;;47.15;28.02;;;;;;;;;;5037673;28;20063;-78
2021/12/10 07:51:55;;;;;;;83.07;48.47;;;;;;;;;;5038286;28;20081;-78
2021/12/10 07:54:21;;;;;;;52.85;30.30;;;;;;;;;;5038465;28;20123;-79
2021/12/10 07:56:46;;;;;;;71.72;34.20;;;;;;;;;;5038789;28;20135;-77
2021/12/10 07:59:12;;;;;;;76.05;38.03;;;;;;;;;;5056469;28;20029;-77
2021/12/10 08:01:37;;;;;;;55.50;32.72;;;;;;;;;;5056219;28;20024;-75
2021/12/10 08:04:04;;;;;;;89.25;53.05;;;;;;;;;;5057270;28;20410;-76
2021/12/10 08:06:30;;;;;;;69.10;41.20;;;;;;;;;;5054777;28;20110;-78
2021/12/10 08:08:56;;;;;;;65.43;38.55;;;;;;;;;;5055664;28;20052;-75
2021/12/10 08:11:22;;;;;;;251.02;137.30;;;;;;;;;;5054287;28;20121;-77
2021/12/10 08:13:47;;;;;;;136.35;75.70;;;;;;;;;;5055508;28;20032;-77
2021/12/10 08:16:13;;;;;;;83.70;48.20;;;;;;;;;;5038418;28;20020;-77
2021/12/10 08:18:38;;;;;;;86.50;51.38;;;;;;;;;;5054361;28;20028;-77
2021/12/10 08:21:04;;;;;;;74.10;44.28;;;;;;;;;;5057042;28;20031;-77
2021/12/10 08:23:30;;;;;;;78.70;53.95;;;;;;;;;;5055872;28;20016;-78
2021/12/10 08:25:55;;;;;;;71.05;43.92;;;;;;;;;;5055606;28;20455;-77
2021/12/10 08:28:25;;;;;;;35.78;23.02;;;;;;;;;;5055887;28;20032;-75
2021/12/10 08:30:51;;;;;;;23.70;16.58;;;;;;;;;;5054674;28;20020;-79
2021/12/10 08:33:16;;;;;;;29.25;20.08;;;;;;;;;;5056456;28;20040;-77
2021/12/10 08:35:43;;;;;;;67.95;37.15;;;;;;;;;;5056728;28;20035;-79
2021/12/10 08:38:09;;;;;;;110.55;54.83;;;;;;;;;;5055539;28;20020;-78
2021/12/10 08:40:40;;;;;;;112.63;58.35;;;;;;;;;;5037423;28;20472;-78
2021/12/10 08:43:05;;;;;;;174.93;73.07;;;;;;;;;;5038036;28;20027;-77
2021/12/10 08:45:31;;;;;;;129.40;56.65;;;;;;;;;;5037074;28;20107;-77
2021/12/10 08:47:56;;;;;;;96.57;52.45;;;;;;;;;;5056447;28;20043;-76
2021/12/10 08:50:23;;;;;;;44.05;25.02;;;;;;;;;;5037269;28;20719;-77
2021/12/10 08:52:54;;;;;;;24.50;15.35;;;;;;;;;;5055142;28;20032;-76
2021/12/10 08:55:20;;;;;;;19.17;14.52;;;;;;;;;;5056917;28;20028;-78
2021/12/10 08:57:46;;;;;;;19.73;13.75;;;;;;;;;;5055434;28;20442;-76
2021/12/10 09:00:12;;;;;;;25.25;17.45;;;;;;;;;;5036869;28;20028;-76
2021/12/10 09:02:38;;;;;;;24.67;17.50;;;;;;;;;;5036391;28;21022;-76
2021/12/10 09:05:05;;;;;;;22.73;17.08;;;;;;;;;;5055376;28;20021;-78
2021/12/10 09:07:30;;;;;;;40.97;27.80;;;;;;;;;;5025508;28;20041;-77
2021/12/10 09:09:55;;;;;;;55.33;33.53;;;;;;;;;;5015316;28;20076;-77
2021/12/10 09:12:22;;;;;;;99.90;57.55;;;;;;;;;;5015083;28;20053;-76
2021/12/10 09:14:52;;;;;;;36.25;22.70;;;;;;;;;;5013393;28;20033;-76
2021/12/10 09:17:21;;;;;;;30.15;19.38;;;;;;;;;;5028938;28;20768;-75
2021/12/10 09:19:46;;;;;;;31.17;20.88;;;;;;;;;;5055194;28;20025;-75
2021/12/10 09:22:12;;;;;;;40.05;25.92;;;;;;;;;;5054431;28;20089;-77
2021/12/10 09:24:39;;;;;;;37.63;26.48;;;;;;;;;;5055776;28;20104;-75
2021/12/10 09:27:04;;;;;;;33.75;23.92;;;;;;;;;;5055842;28;20027;-78
2021/12/10 09:29:35;;;;;;;27.00;20.60;;;;;;;;;;5055490;28;20036;-78
2021/12/10 09:32:00;;;;;;;35.42;22.40;;;;;;;;;;5036513;28;20086;-75
2021/12/10 09:34:26;;;;;;;45.33;30.55;;;;;;;;;;5036851;28;20028;-75
2021/12/10 09:36:52;;;;;;;73.63;44.92;;;;;;;;;;5036304;28;20024;-78
2021/12/10 09:39:19;;;;;;;76.30;44.45;;;;;;;;;;5054618;28;20430;-77
2021/12/10 09:41:45;;;;;;;36.25;24.13;;;;;;;;;;5036392;28;20025;-78
2021/12/10 09:44:11;;;;;;;34.13;21.42;;;;;;;;;;5036641;28;20131;-78
2021/12/10 09:46:37;;;;;;;36.80;23.80;;;;;;;;;;5029127;28;20459;-76
2021/12/10 09:49:03;;;;;;;32.60;22.27;;;;;;;;;;5016517;28;20055;-75
2021/12/10 09:51:31;;;;;;;107.57;53.95;;;;;;;;;;5034993;28;20025;-75
2021/12/10 09:54:00;;;;;;;122.45;62.53;;;;;;;;;;5017649;28;20029;-75
2021/12/10 09:56:26;;;;;;;74.03;39.33;;;;;;;;;;5017481;28;20024;-76
2021/12/10 09:58:56;;;;;;;29.85;17.35;;;;;;;;;;5036504;28;20082;-77
2021/12/10 10:01:23;;;;;;;28.08;19.17;;;;;;;;;;5032363;28;20525;-76
2021/12/10 10:03:50;;;;;;;195.77;93.32;;;;;;;;;;5024137;28;20052;-76
2021/12/10 10:06:16;;;;;;;330.55;155.60;;;;;;;;;;5034241;28;20052;-76
2021/12/10 10:08:41;;;;;;;242.25;117.18;;;;;;;;;;5035233;28;20064;-75
2021/12/10 10:11:12;;;;;;;259.20;116.18;;;;;;;;;;5050553;28;20432;-75
2021/12/10 10:13:39;;;;;;;417.35;180.32;;;;;;;;;;5036103;28;20017;-78
2021/12/10 10:16:05;;;;;;;263.38;103.88;;;;;;;;;;5030198;28;20029;-76
2021/12/10 10:18:33;;;;;;;57.70;27.30;;;;;;;;;;5052261;28;20078;-76
2021/12/10 10:21:02;;;;;;;107.28;50.55;;;;;;;;;;5030727;28;20025;-79
2021/12/10 10:23:27;;;;;;;154.30;72.03;;;;;;;;;;5036524;28;20060;-75
2021/12/10 10:25:56;;;;;;;40.33;21.05;;;;;;;;;;5037949;28;20377;-76
2021/12/10 10:28:22;;;;;;;30.30;18.08;;;;;;;;;;5023649;28;20059;-76
2021/12/10 10:31:00;;;;;;;22.92;15.90;;;;;;;;;;5019515;28;20060;-75
2021/12/10 10:33:26;;;;;;;39.17;25.35;;;;;;;;;;5020595;28;20052;-76
2021/12/10 10:35:54;;;;;;;85.15;46.45;;;;;;;;;;5019177;28;20052;-76
2021/12/10 10:38:20;;;;;;;75.53;39.58;;;;;;;;;;5020078;28;20028;-77
2021/12/10 10:40:50;;;;;;;118.28;60.72;;;;;;;;;;5038186;28;20078;-78
2021/12/10 10:43:15;;;;;;;68.47;39.03;;;;;;;;;;5029977;28;20049;-77
2021/12/10 10:45:43;;;;;;;39.30;26.60;;;;;;;;;;5036407;28;20033;-78
2021/12/10 10:48:09;;;;;;;35.63;26.08;;;;;;;;;;5047255;28;20033;-75
2021/12/10 10:50:36;;;;;;;144.80;83.13;;;;;;;;;;5020092;28;20071;-77
2021/12/10 10:53:07;;;;;;;45.75;27.00;;;;;;;;;;5019568;28;20025;-76
2021/12/10 10:55:37;;;;;;;70.28;42.75;;;;;;;;;;5020028;28;20109;-77
2021/12/10 10:58:08;;;;;;;56.65;36.40;;;;;;;;;;5033932;28;20080;-77
2021/12/10 11:00:34;;;;;;;35.03;23.38;;;;;;;;;;5039737;28;20056;-79
2021/12/10 11:03:08;;;;;;;37.00;25.80;;;;;;;;;;5039968;28;20044;-75
2021/12/10 11:05:34;;;;;;;37.50;24.58;;;;;;;;;;5058284;28;20031;-75
2021/12/10 11:08:01;;;;;;;24.10;16.20;;;;;;;;;;5039686;28;20036;-76
2021/12/10 11:10:35;;;;;;;31.60;19.13;;;;;;;;;;5057702;28;20103;-74
2021/12/10 11:13:08;;;;;;;34.90;24.40;;;;;;;;;;5056999;28;20055;-76
2021/12/10 11:15:35;;;;;;;40.22;28.27;;;;;;;;;;5057668;28;20021;-76
2021/12/10 11:18:00;;;;;;;33.53;21.08;;;;;;;;;;5057951;28;20029;-77
2021/12/10 11:20:31;;;;;;;91.28;38.83;;;;;;;;;;5039121;28;20031;-77
2021/12/10 11:23:07;;;;;;;111.72;62.25;;;;;;;;;;5039899;28;20406;-78
2021/12/10 11:25:37;;;;;;;52.85;30.73;;;;;;;;;;5056625;28;20080;-77
2021/12/10 11:28:06;;;;;;;81.55;39.53;;;;;;;;;;5038683;28;20664;-75
2021/12/10 11:30:32;;;;;;;135.75;63.13;;;;;;;;;;5039242;28;20017;-79
2021/12/10 11:33:08;;;;;;;104.63;51.85;;;;;;;;;;5039131;28;20584;-80
2021/12/10 11:35:35;;;;;;;68.63;40.42;;;;;;;;;;5038827;28;20020;-75
2021/12/10 11:38:04;;;;;;;53.47;35.45;;;;;;;;;;5039502;28;20029;-75
2021/12/10 11:40:36;;;;;;;27.37;18.97;;;;;;;;;;5037742;28;20410;-77
2021/12/10 11:43:52;;;;;;;27.63;18.55;;;;;;;;;;5052291;28;20808;-78
2021/12/10 11:48:42;;;;;;;32.63;20.25;;;;;;;;;;5035510;28;20086;-79
2021/12/10 11:51:10;;;;;;;68.47;54.83;;;;;;;;;;5036316;28;20044;-77
2021/12/10 11:53:37;;;;;;;73.80;55.78;;;;;;;;;;5020550;28;20487;-76
2021/12/10 11:56:05;;;;;;;117.38;63.70;;;;;;;;;;5036361;28;20028;-78
2021/12/10 11:58:30;;;;;;;164.85;89.78;;;;;;;;;;5036700;28;20068;-76
2021/12/10 12:00:56;;;;;;;162.95;88.53;;;;;;;;;;5018554;28;20654;-76
2021/12/10 12:03:27;;;;;;;58.05;33.95;;;;;;;;;;5018259;28;20074;-77
2021/12/10 12:05:53;;;;;;;40.70;29.42;;;;;;;;;;5036342;28;20021;-77
2021/12/10 12:08:19;;;;;;;55.70;38.17;;;;;;;;;;5018361;28;20032;-76
2021/12/10 12:10:49;;;;;;;59.95;39.13;;;;;;;;;;5035385;28;20073;-76
2021/12/10 12:15:44;;;;;;;68.82;38.30;;;;;;;;;;5036220;28;20032;-76
2021/12/10 12:18:14;;;;;;;41.80;26.77;;;;;;;;;;5018585;28;20117;-76
2021/12/10 12:20:52;;;;;;;50.72;32.30;;;;;;;;;;5033708;28;20040;-78
2021/12/10 12:26:07;;;;;;;51.22;27.20;;;;;;;;;;5054836;28;20062;-79
2021/12/10 12:28:33;;;;;;;42.92;27.88;;;;;;;;;;5055837;28;20025;-76
2021/12/10 12:31:08;;;;;;;36.22;26.65;;;;;;;;;;5052658;28;20082;-74
2021/12/10 12:33:48;;;;;;;44.47;29.75;;;;;;;;;;5055395;28;20116;-74
2021/12/10 12:36:13;;;;;;;69.40;42.30;;;;;;;;;;5054166;28;20082;-75
2021/12/10 12:38:42;;;;;;;102.88;55.97;;;;;;;;;;5056570;28;20066;-77
2021/12/10 12:41:10;;;;;;;61.47;35.92;;;;;;;;;;5038500;28;20139;-76
2021/12/10 12:43:39;;;;;;;33.78;24.17;;;;;;;;;;5056637;28;20028;-75
2021/12/10 12:46:06;;;;;;;36.42;26.58;;;;;;;;;;5075468;28;20360;-75
2021/12/10 12:48:32;;;;;;;39.90;27.23;;;;;;;;;;5076604;28;20032;-79
2021/12/10 12:51:02;;;;;;;20.63;16.90;;;;;;;;;;5075081;28;20027;-76
2021/12/10 12:53:29;;;;;;;;;;;;;;;;;;5076457;28;20024;-75
2021/12/10 12:55:55;;;;;;;60.15;35.47;;;;;;;;;;5060514;28;19908;-76
2021/12/10 12:58:23;;;;;;;36.45;24.95;;;;;;;;;;5054743;28;20559;-78
2021/12/10 13:00:57;;;;;;;17.10;13.50;;;;;;;;;;5037321;28;20024;-75
2021/12/10 13:03:25;;;;;;;35.63;25.70;;;;;;;;;;5052613;28;20028;-76
2021/12/10 13:05:54;;;;;;;44.47;28.67;;;;;;;;;;5037214;28;20020;-76
2021/12/10 13:08:22;;;;;;;35.67;27.10;;;;;;;;;;5056484;28;20043;-75
2021/12/10 13:11:00;;;;;;;53.22;38.58;;;;;;;;;;5055299;28;20079;-77
2021/12/10 13:13:35;;;;;;;38.97;30.02;;;;;;;;;;5054897;28;20013;-78
2021/12/10 13:16:00;;;;;;;53.35;34.30;;;;;;;;;;5052005;28;20507;-76
2021/12/10 13:18:25;;;;;;;45.63;31.48;;;;;;;;;;5043551;28;20103;-76
2021/12/10 13:20:53;;;;;;;49.20;34.13;;;;;;;;;;5046082;28;20055;-76
2021/12/10 13:23:26;;;;;;;34.58;23.65;;;;;;;;;;5044064;28;20017;-76
2021/12/10 13:25:53;;;;;;;34.85;23.20;;;;;;;;;;5026554;28;20099;-76
2021/12/10 13:28:18;;;;;;;65.65;42.33;;;;;;;;;;5026034;28;20017;-76
2021/12/10 13:30:49;;;;;;;44.30;32.10;;;;;;;;;;5043295;28;20025;-76
2021/12/10 13:33:16;;;;;;;70.80;46.90;;;;;;;;;;5039821;28;20025;-78
2021/12/10 13:35:42;;;;;;;52.80;33.10;;;;;;;;;;5045260;28;20032;-76
2021/12/10 13:38:08;;;;;;;51.63;33.33;;;;;;;;;;5027469;28;20036;-77
2021/12/10 13:40:35;;;;;;;72.47;40.50;;;;;;;;;;5042288;28;20025;-77
2021/12/10 13:43:03;;;;;;;57.10;34.53;;;;;;;;;;5032849;28;20039;-75
2021/12/10 13:45:28;;;;;;;43.60;26.85;;;;;;;;;;5034419;28;20052;-76
2021/12/10 13:48:02;;;;;;;32.13;22.25;;;;;;;;;;5019274;28;20476;-77
2021/12/10 13:50:28;;;;;;;28.63;21.83;;;;;;;;;;5038425;28;20127;-78
2021/12/10 13:53:03;;;;;;;30.58;22.88;;;;;;;;;;5037672;28;20509;-78
2021/12/10 13:55:49;;;;;;;42.38;28.58;;;;;;;;;;5054204;28;20070;-76
2021/12/10 13:58:14;;;;;;;46.03;31.92;;;;;;;;;;5036449;28;20084;-79
2021/12/10 14:00:52;;;;;;;34.65;23.98;;;;;;;;;;5038321;28;20435;-77
2021/12/10 14:03:37;;;;;;;22.27;19.30;;;;;;;;;;5039068;28;20029;-78
2021/12/10 14:06:03;;;;;;;19.85;13.98;;;;;;;;;;5007189;28;20480;-77
2021/12/10 14:08:28;;;;;;;22.10;15.73;;;;;;;;;;5037503;28;20056;-77
2021/12/10 14:11:01;;;;;;;51.72;34.13;;;;;;;;;;5020343;28;20052;-79
2021/12/10 14:13:28;;;;;;;61.45;41.58;;;;;;;;;;5020241;28;20108;-77
2021/12/10 14:16:04;;;;;;;69.22;50.17;;;;;;;;;;5038071;28;20025;-77
2021/12/10 14:18:34;;;;;;;87.65;64.35;;;;;;;;;;5038391;28;20029;-78
2021/12/10 14:21:04;;;;;;;143.27;89.18;;;;;;;;;;5038567;28;20059;-77
2021/12/10 14:23:35;;;;;;;240.20;132.95;;;;;;;;;;5019864;28;20024;-77
2021/12/10 14:26:05;;;;;;;240.15;132.85;;;;;;;;;;5039019;28;20025;-78
2021/12/10 14:28:39;;;;;;;182.45;97.90;;;;;;;;;;5019667;28;20124;-77
2021/12/10 14:31:28;;;;;;;78.60;45.50;;;;;;;;;;5019904;28;20028;-79
2021/12/10 14:33:54;;;;;;;47.78;31.40;;;;;;;;;;5038631;28;20021;-78
2021/12/10 14:36:20;;;;;;;94.95;59.35;;;;;;;;;;5038678;28;20898;-77
2021/12/10 14:38:52;;;;;;;45.75;30.75;;;;;;;;;;5037980;28;20057;-78